Terminal Aerodrome Forecast
Issued by NWS North Platte, NE

Home | Current Version | Previous Version | Text Only | Print | Product List | Glossary On
Versions: 1 2 3 4 5 6 7 8 9 10 11 12
000
FTUS43 KLBF 271739
TAFLBF
TAF
KLBF 271739Z 2718/2818 19016G25KT P6SM SCT090 BKN150
     FM272100 29014KT P6SM VCTS SCT070CB OVC120
     FM280000 32010KT P6SM SCT080 BKN150
     FM280300 31014KT P6SM BKN100=

USA.gov is the U.S. government's official web portal to all federal, state and local government web resources and services.